Acworth, GA (30101)

3:22 AM EST on March 05, 2015 (GMT -0500)
Mars Hill Acres | Change Station
CLOSE
Current Station
Personal Weather Station
Location: Acworth, GA
Elevation: 978 ft
Nearby Weather Stations

Elev 978 ft 34.03 °N, 84.69 °W | Updated 1 second ago

Overcast
Overcast
59.2 °F
Feels Like 59.2 °F
N
7.4
Wind Variable Wind from SSW

Today
High -- | Low -- °F
--% Chance of Precip.
Yesterday
High -- | Low -- °F
Precip. -- in
7:02 AM 6:38 PM
Full, 100% visible
Pressure 29.89 in
Visibility 10.0 miles
Clouds Overcast 500 ft
Dew Point 58 °F
Humidity 96%
Rainfall in
Snow Depth Not available.
UV 0 out of 12
Pollen 8.30 out of 12
Air Quality Not available.
Flu Activity Not available.
SPECI KVPC 050809Z AUTO VRB05KT 10SM OVC005 11/10 A2989 RMK AO2 T01110100

More Conditions Fewer Conditions

Pressure 29.89 in
Visibility 10.0 miles
Clouds Overcast 500 ft
Dew Point 58 °F
Humidity 96%
Rainfall in
Snow Depth Not available.
UV 0 out of 12
Pollen 8.30 out of 12
Air Quality Not available.
Flu Activity Not available.
SPECI KVPC 050809Z AUTO VRB05KT 10SM OVC005 11/10 A2989 RMK AO2 T01110100

More Conditions Fewer Conditions

10-Day Weather Forecast

Almanac

Astronomy

Mar. 05, 2015 Rise Set
Actual Time
Civil Twilight
Nautical Twilight
Astronomical Twilight
Moon
Length of Visible Light
Length of Day
Tomorrow will be .
, % of the Moon is Illuminated

Today's Extremes

State Highs State Lows

Community

WunderPhotos

Upload Photos

1,802,704 photos uploaded!

WunderBlogs® & News

Nearby

Air Quality

  Air Quality AQ Index Pollutant
Not available.

Snow Depth

Station Depth Elevation

Earthquake Activity

City Distance Mag. Time & Date
Minimum magnitude displayed is 2.5.

Coastal Water Temperatures

Place Temperature

Nearby Weather Stations